sensor_id;sensor_type;location;lat;lon;timestamp;pressure;altitude;pressure_sealevel;temperature
76394;BMP180;65216;51.090;-115.352;2023-04-24T00:01:45;86033.00;;;22.52
76394;BMP180;65216;51.090;-115.352;2023-04-24T00:04:12;86044.60;;;22.50
76394;BMP180;65216;51.090;-115.352;2023-04-24T00:06:43;86050.20;;;22.50
76394;BMP180;65216;51.090;-115.352;2023-04-24T00:09:11;86044.80;;;22.50
76394;BMP180;65216;51.090;-115.352;2023-04-24T00:11:38;86044.40;;;22.50
76394;BMP180;65216;51.090;-115.352;2023-04-24T00:14:05;86072.60;;;22.50
76394;BMP180;65216;51.090;-115.352;2023-04-24T00:16:33;86075.80;;;22.50
76394;BMP180;65216;51.090;-115.352;2023-04-24T00:19:00;86071.80;;;22.50
76394;BMP180;65216;51.090;-115.352;2023-04-24T00:21:27;86070.40;;;22.48
76394;BMP180;65216;51.090;-115.352;2023-04-24T00:23:54;86055.20;;;22.42
76394;BMP180;65216;51.090;-115.352;2023-04-24T00:26:24;86048.60;;;22.40
76394;BMP180;65216;51.090;-115.352;2023-04-24T00:28:51;86054.80;;;22.40
76394;BMP180;65216;51.090;-115.352;2023-04-24T00:31:19;86055.60;;;22.40
76394;BMP180;65216;51.090;-115.352;2023-04-24T00:33:46;86060.40;;;22.40
76394;BMP180;65216;51.090;-115.352;2023-04-24T00:36:14;86067.60;;;22.40
76394;BMP180;65216;51.090;-115.352;2023-04-24T00:38:41;86061.80;;;22.40
76394;BMP180;65216;51.090;-115.352;2023-04-24T00:41:11;86054.40;;;22.32
76394;BMP180;65216;51.090;-115.352;2023-04-24T00:43:40;86060.60;;;22.30
76394;BMP180;65216;51.090;-115.352;2023-04-24T00:46:08;86056.00;;;22.30
76394;BMP180;65216;51.090;-115.352;2023-04-24T00:48:35;86051.80;;;22.30
76394;BMP180;65216;51.090;-115.352;2023-04-24T00:51:03;86067.20;;;22.30
76394;BMP180;65216;51.090;-115.352;2023-04-24T00:53:30;86065.20;;;22.30
76394;BMP180;65216;51.090;-115.352;2023-04-24T00:55:58;86065.20;;;22.30
76394;BMP180;65216;51.090;-115.352;2023-04-24T00:58:26;86066.40;;;22.30
76394;BMP180;65216;51.090;-115.352;2023-04-24T01:00:55;86059.00;;;22.28
76394;BMP180;65216;51.090;-115.352;2023-04-24T01:03:30;86057.00;;;22.20
76394;BMP180;65216;51.090;-115.352;2023-04-24T01:05:57;86070.00;;;22.20
76394;BMP180;65216;51.090;-115.352;2023-04-24T01:08:31;86059.80;;;22.20
76394;BMP180;65216;51.090;-115.352;2023-04-24T01:10:58;86059.80;;;22.20
76394;BMP180;65216;51.090;-115.352;2023-04-24T01:13:29;86063.80;;;22.20
76394;BMP180;65216;51.090;-115.352;2023-04-24T01:15:56;86073.80;;;22.20
76394;BMP180;65216;51.090;-115.352;2023-04-24T01:18:27;86071.40;;;22.20
76394;BMP180;65216;51.090;-115.352;2023-04-24T01:20:59;86069.80;;;22.20
76394;BMP180;65216;51.090;-115.352;2023-04-24T01:23:27;86076.00;;;22.12
76394;BMP180;65216;51.090;-115.352;2023-04-24T01:25:55;86057.80;;;22.10
76394;BMP180;65216;51.090;-115.352;2023-04-24T01:28:23;86071.00;;;22.10
76394;BMP180;65216;51.090;-115.352;2023-04-24T01:30:50;86077.20;;;22.10
76394;BMP180;65216;51.090;-115.352;2023-04-24T01:33:18;86072.60;;;22.10
76394;BMP180;65216;51.090;-115.352;2023-04-24T01:35:48;86077.60;;;22.10
76394;BMP180;65216;51.090;-115.352;2023-04-24T01:38:18;86071.20;;;22.10
76394;BMP180;65216;51.090;-115.352;2023-04-24T01:40:51;86078.00;;;22.10
76394;BMP180;65216;51.090;-115.352;2023-04-24T01:43:19;86088.00;;;22.10
76394;BMP180;65216;51.090;-115.352;2023-04-24T01:45:46;86077.60;;;22.10
76394;BMP180;65216;51.090;-115.352;2023-04-24T01:48:13;86091.60;;;22.10
76394;BMP180;65216;51.090;-115.352;2023-04-24T01:50:41;86089.60;;;22.10
76394;BMP180;65216;51.090;-115.352;2023-04-24T01:53:08;86085.00;;;22.10
76394;BMP180;65216;51.090;-115.352;2023-04-24T01:55:36;86086.00;;;22.02
76394;BMP180;65216;51.090;-115.352;2023-04-24T01:58:44;86087.40;;;22.02
76394;BMP180;65216;51.090;-115.352;2023-04-24T02:01:24;86085.00;;;22.00
76394;BMP180;65216;51.090;-115.352;2023-04-24T02:03:51;86078.40;;;22.00
76394;BMP180;65216;51.090;-115.352;2023-04-24T02:06:19;86084.80;;;22.00
76394;BMP180;65216;51.090;-115.352;2023-04-24T02:08:50;86080.00;;;22.00
76394;BMP180;65216;51.090;-115.352;2023-04-24T02:11:17;86082.40;;;22.00
76394;BMP180;65216;51.090;-115.352;2023-04-24T02:13:48;86081.80;;;22.00
76394;BMP180;65216;51.090;-115.352;2023-04-24T02:16:15;86077.20;;;22.00
76394;BMP180;65216;51.090;-115.352;2023-04-24T02:18:45;86077.00;;;22.00
76394;BMP180;65216;51.090;-115.352;2023-04-24T02:21:12;86081.80;;;21.90
76394;BMP180;65216;51.090;-115.352;2023-04-24T02:23:40;86077.60;;;21.90
76394;BMP180;65216;51.090;-115.352;2023-04-24T02:26:07;86084.00;;;21.90
76394;BMP180;65216;51.090;-115.352;2023-04-24T02:28:34;86084.20;;;21.90
76394;BMP180;65216;51.090;-115.352;2023-04-24T02:31:02;86082.40;;;21.90
76394;BMP180;65216;51.090;-115.352;2023-04-24T02:33:32;86078.40;;;21.90
76394;BMP180;65216;51.090;-115.352;2023-04-24T02:36:00;86078.20;;;21.90
76394;BMP180;65216;51.090;-115.352;2023-04-24T02:38:27;86069.20;;;21.90
76394;BMP180;65216;51.090;-115.352;2023-04-24T02:40:55;86077.20;;;21.90
76394;BMP180;65216;51.090;-115.352;2023-04-24T02:43:22;86078.20;;;21.90
76394;BMP180;65216;51.090;-115.352;2023-04-24T02:45:49;86074.80;;;21.90
76394;BMP180;65216;51.090;-115.352;2023-04-24T02:48:16;86075.80;;;21.86
76394;BMP180;65216;51.090;-115.352;2023-04-24T02:50:44;86081.00;;;21.80
76394;BMP180;65216;51.090;-115.352;2023-04-24T02:53:12;86079.80;;;21.80
76394;BMP180;65216;51.090;-115.352;2023-04-24T02:55:39;86088.00;;;21.80
76394;BMP180;65216;51.090;-115.352;2023-04-24T02:58:06;86078.80;;;21.80
76394;BMP180;65216;51.090;-115.352;2023-04-24T03:00:34;86061.80;;;21.80
76394;BMP180;65216;51.090;-115.352;2023-04-24T03:03:04;86075.60;;;21.80
76394;BMP180;65216;51.090;-115.352;2023-04-24T03:05:31;86065.20;;;21.80
76394;BMP180;65216;51.090;-115.352;2023-04-24T03:07:59;86068.00;;;21.80
76394;BMP180;65216;51.090;-115.352;2023-04-24T03:10:26;86069.20;;;21.74
76394;BMP180;65216;51.090;-115.352;2023-04-24T03:12:53;86074.20;;;21.70
76394;BMP180;65216;51.090;-115.352;2023-04-24T03:15:21;86080.60;;;21.70
76394;BMP180;65216;51.090;-115.352;2023-04-24T03:17:54;86079.80;;;21.70
76394;BMP180;65216;51.090;-115.352;2023-04-24T03:20:22;86080.00;;;21.70
76394;BMP180;65216;51.090;-115.352;2023-04-24T03:22:49;86080.20;;;21.70
76394;BMP180;65216;51.090;-115.352;2023-04-24T03:25:16;86084.00;;;21.60
76394;BMP180;65216;51.090;-115.352;2023-04-24T03:27:44;86087.40;;;21.60
76394;BMP180;65216;51.090;-115.352;2023-04-24T03:30:11;86085.60;;;21.60
76394;BMP180;65216;51.090;-115.352;2023-04-24T03:32:38;86092.00;;;21.60
76394;BMP180;65216;51.090;-115.352;2023-04-24T03:35:09;86094.20;;;21.60
76394;BMP180;65216;51.090;-115.352;2023-04-24T03:37:36;86092.60;;;21.60
76394;BMP180;65216;51.090;-115.352;2023-04-24T03:40:04;86089.80;;;21.56
76394;BMP180;65216;51.090;-115.352;2023-04-24T03:42:32;86091.80;;;21.54
76394;BMP180;65216;51.090;-115.352;2023-04-24T03:45:00;86091.00;;;21.50
76394;BMP180;65216;51.090;-115.352;2023-04-24T03:47:27;86092.40;;;21.50
76394;BMP180;65216;51.090;-115.352;2023-04-24T03:49:54;86094.40;;;21.50
76394;BMP180;65216;51.090;-115.352;2023-04-24T03:52:22;86093.40;;;21.50
76394;BMP180;65216;51.090;-115.352;2023-04-24T03:54:49;86089.20;;;21.50
76394;BMP180;65216;51.090;-115.352;2023-04-24T03:57:19;86088.20;;;21.50
76394;BMP180;65216;51.090;-115.352;2023-04-24T03:59:50;86085.80;;;21.50
76394;BMP180;65216;51.090;-115.352;2023-04-24T04:02:17;86088.00;;;21.50
76394;BMP180;65216;51.090;-115.352;2023-04-24T04:04:45;86085.60;;;21.50
76394;BMP180;65216;51.090;-115.352;2023-04-24T04:07:12;86088.40;;;21.50
76394;BMP180;65216;51.090;-115.352;2023-04-24T04:09:40;86088.40;;;21.44
76394;BMP180;65216;51.090;-115.352;2023-04-24T04:12:07;86087.40;;;21.40
76394;BMP180;65216;51.090;-115.352;2023-04-24T04:14:34;86092.80;;;21.40
76394;BMP180;65216;51.090;-115.352;2023-04-24T04:17:02;86090.80;;;21.40
76394;BMP180;65216;51.090;-115.352;2023-04-24T04:19:29;86086.80;;;21.40
76394;BMP180;65216;51.090;-115.352;2023-04-24T04:21:56;86086.20;;;21.40
76394;BMP180;65216;51.090;-115.352;2023-04-24T04:24:23;86088.20;;;21.40
76394;BMP180;65216;51.090;-115.352;2023-04-24T04:26:51;86090.60;;;21.40
76394;BMP180;65216;51.090;-115.352;2023-04-24T04:29:19;86091.20;;;21.40
76394;BMP180;65216;51.090;-115.352;2023-04-24T04:31:46;86085.40;;;21.40
76394;BMP180;65216;51.090;-115.352;2023-04-24T04:34:13;86083.80;;;21.40
76394;BMP180;65216;51.090;-115.352;2023-04-24T04:36:42;86089.20;;;21.40
76394;BMP180;65216;51.090;-115.352;2023-04-24T04:39:10;86089.60;;;21.40
76394;BMP180;65216;51.090;-115.352;2023-04-24T04:41:37;86087.00;;;21.40
76394;BMP180;65216;51.090;-115.352;2023-04-24T04:44:07;86082.00;;;21.40
76394;BMP180;65216;51.090;-115.352;2023-04-24T04:46:37;86087.20;;;21.40
76394;BMP180;65216;51.090;-115.352;2023-04-24T04:49:05;86093.80;;;21.40
76394;BMP180;65216;51.090;-115.352;2023-04-24T04:51:34;86096.60;;;21.40
76394;BMP180;65216;51.090;-115.352;2023-04-24T04:54:02;86097.80;;;21.40
76394;BMP180;65216;51.090;-115.352;2023-04-24T04:56:29;86091.80;;;21.40
76394;BMP180;65216;51.090;-115.352;2023-04-24T04:58:56;86087.40;;;21.40
76394;BMP180;65216;51.090;-115.352;2023-04-24T05:01:25;86083.20;;;21.36
76394;BMP180;65216;51.090;-115.352;2023-04-24T05:03:54;86082.80;;;21.32
76394;BMP180;65216;51.090;-115.352;2023-04-24T05:06:22;86085.00;;;21.30
76394;BMP180;65216;51.090;-115.352;2023-04-24T05:08:49;86083.60;;;21.30
76394;BMP180;65216;51.090;-115.352;2023-04-24T05:11:17;86080.60;;;21.30
76394;BMP180;65216;51.090;-115.352;2023-04-24T05:13:45;86082.00;;;21.30
76394;BMP180;65216;51.090;-115.352;2023-04-24T05:16:12;86076.40;;;21.30
76394;BMP180;65216;51.090;-115.352;2023-04-24T05:18:39;86072.00;;;21.30
76394;BMP180;65216;51.090;-115.352;2023-04-24T05:21:09;86073.80;;;21.30
76394;BMP180;65216;51.090;-115.352;2023-04-24T05:23:36;86070.80;;;21.30
76394;BMP180;65216;51.090;-115.352;2023-04-24T05:26:04;86065.00;;;21.30
76394;BMP180;65216;51.090;-115.352;2023-04-24T05:28:34;86060.20;;;21.30
76394;BMP180;65216;51.090;-115.352;2023-04-24T05:31:03;86062.20;;;21.30
76394;BMP180;65216;51.090;-115.352;2023-04-24T05:33:31;86057.40;;;21.30
76394;BMP180;65216;51.090;-115.352;2023-04-24T05:35:58;86046.60;;;21.30
76394;BMP180;65216;51.090;-115.352;2023-04-24T05:38:26;86046.40;;;21.30
76394;BMP180;65216;51.090;-115.352;2023-04-24T05:40:56;86046.60;;;21.30
76394;BMP180;65216;51.090;-115.352;2023-04-24T05:43:23;86053.00;;;21.30
76394;BMP180;65216;51.090;-115.352;2023-04-24T05:45:51;86055.40;;;21.30
76394;BMP180;65216;51.090;-115.352;2023-04-24T05:48:20;86061.00;;;21.30
76394;BMP180;65216;51.090;-115.352;2023-04-24T05:50:49;86056.00;;;21.30
76394;BMP180;65216;51.090;-115.352;2023-04-24T05:53:17;86055.80;;;21.30
76394;BMP180;65216;51.090;-115.352;2023-04-24T05:55:45;86054.60;;;21.30
76394;BMP180;65216;51.090;-115.352;2023-04-24T05:58:12;86053.60;;;21.22
76394;BMP180;65216;51.090;-115.352;2023-04-24T06:00:44;86051.40;;;21.22
76394;BMP180;65216;51.090;-115.352;2023-04-24T06:03:12;86045.80;;;21.20
76394;BMP180;65216;51.090;-115.352;2023-04-24T06:05:42;86040.60;;;21.20
76394;BMP180;65216;51.090;-115.352;2023-04-24T06:08:10;86043.00;;;21.20
76394;BMP180;65216;51.090;-115.352;2023-04-24T06:10:38;86041.00;;;21.20
76394;BMP180;65216;51.090;-115.352;2023-04-24T06:13:05;86039.80;;;21.20
76394;BMP180;65216;51.090;-115.352;2023-04-24T06:15:33;86042.60;;;21.20
76394;BMP180;65216;51.090;-115.352;2023-04-24T06:18:00;86044.40;;;21.20
76394;BMP180;65216;51.090;-115.352;2023-04-24T06:20:33;86044.00;;;21.20
76394;BMP180;65216;51.090;-115.352;2023-04-24T06:23:01;86047.00;;;21.20
76394;BMP180;65216;51.090;-115.352;2023-04-24T06:25:28;86048.00;;;21.20
76394;BMP180;65216;51.090;-115.352;2023-04-24T06:27:58;86040.60;;;21.20
76394;BMP180;65216;51.090;-115.352;2023-04-24T06:30:25;86035.20;;;21.20
76394;BMP180;65216;51.090;-115.352;2023-04-24T06:32:54;86038.80;;;21.20
76394;BMP180;65216;51.090;-115.352;2023-04-24T06:35:21;86046.40;;;21.20
76394;BMP180;65216;51.090;-115.352;2023-04-24T06:37:48;86045.20;;;21.20
76394;BMP180;65216;51.090;-115.352;2023-04-24T06:40:16;86042.80;;;21.20
76394;BMP180;65216;51.090;-115.352;2023-04-24T06:42:45;86046.00;;;21.20
76394;BMP180;65216;51.090;-115.352;2023-04-24T06:45:12;86046.80;;;21.20
76394;BMP180;65216;51.090;-115.352;2023-04-24T06:47:39;86050.20;;;21.18
76394;BMP180;65216;51.090;-115.352;2023-04-24T06:50:07;86049.80;;;21.18
76394;BMP180;65216;51.090;-115.352;2023-04-24T06:52:34;86049.00;;;21.16
76394;BMP180;65216;51.090;-115.352;2023-04-24T06:55:03;86041.80;;;21.10
76394;BMP180;65216;51.090;-115.352;2023-04-24T06:57:31;86050.00;;;21.10
76394;BMP180;65216;51.090;-115.352;2023-04-24T06:59:58;86043.20;;;21.10
76394;BMP180;65216;51.090;-115.352;2023-04-24T07:02:31;86044.60;;;21.10
76394;BMP180;65216;51.090;-115.352;2023-04-24T07:04:59;86047.00;;;21.10
76394;BMP180;65216;51.090;-115.352;2023-04-24T07:07:26;86048.00;;;21.10
76394;BMP180;65216;51.090;-115.352;2023-04-24T07:09:54;86045.80;;;21.10
76394;BMP180;65216;51.090;-115.352;2023-04-24T07:12:22;86043.60;;;21.10
76394;BMP180;65216;51.090;-115.352;2023-04-24T07:14:51;86040.20;;;21.10
76394;BMP180;65216;51.090;-115.352;2023-04-24T07:17:18;86042.60;;;21.10
76394;BMP180;65216;51.090;-115.352;2023-04-24T07:19:45;86041.80;;;21.10
76394;BMP180;65216;51.090;-115.352;2023-04-24T07:22:12;86052.80;;;21.10
76394;BMP180;65216;51.090;-115.352;2023-04-24T07:24:46;86057.80;;;21.10
76394;BMP180;65216;51.090;-115.352;2023-04-24T07:27:13;86058.80;;;21.10
76394;BMP180;65216;51.090;-115.352;2023-04-24T07:29:42;86056.00;;;21.10
76394;BMP180;65216;51.090;-115.352;2023-04-24T07:32:09;86051.00;;;21.10
76394;BMP180;65216;51.090;-115.352;2023-04-24T07:34:36;86051.00;;;21.10
76394;BMP180;65216;51.090;-115.352;2023-04-24T07:37:04;86050.00;;;21.10
76394;BMP180;65216;51.090;-115.352;2023-04-24T07:39:31;86044.00;;;21.10
76394;BMP180;65216;51.090;-115.352;2023-04-24T07:41:59;86037.40;;;21.10
76394;BMP180;65216;51.090;-115.352;2023-04-24T07:44:28;86037.00;;;21.10
76394;BMP180;65216;51.090;-115.352;2023-04-24T07:46:58;86042.00;;;21.10
76394;BMP180;65216;51.090;-115.352;2023-04-24T07:49:26;86043.40;;;21.18
76394;BMP180;65216;51.090;-115.352;2023-04-24T07:51:54;86051.00;;;21.20
76394;BMP180;65216;51.090;-115.352;2023-04-24T07:54:21;86046.20;;;21.20
76394;BMP180;65216;51.090;-115.352;2023-04-24T07:56:49;86047.40;;;21.14
76394;BMP180;65216;51.090;-115.352;2023-04-24T07:59:16;86047.00;;;21.20
76394;BMP180;65216;51.090;-115.352;2023-04-24T08:01:43;86046.80;;;21.18
76394;BMP180;65216;51.090;-115.352;2023-04-24T08:04:11;86050.80;;;21.18
76394;BMP180;65216;51.090;-115.352;2023-04-24T08:06:38;86049.40;;;21.16
76394;BMP180;65216;51.090;-115.352;2023-04-24T08:09:08;86048.80;;;21.18
76394;BMP180;65216;51.090;-115.352;2023-04-24T08:11:36;86046.20;;;21.20
76394;BMP180;65216;51.090;-115.352;2023-04-24T08:14:03;86049.80;;;21.20
76394;BMP180;65216;51.090;-115.352;2023-04-24T08:16:32;86050.20;;;21.20
76394;BMP180;65216;51.090;-115.352;2023-04-24T08:19:03;86051.20;;;21.20
76394;BMP180;65216;51.090;-115.352;2023-04-24T08:21:30;86051.00;;;21.20
76394;BMP180;65216;51.090;-115.352;2023-04-24T08:23:58;86049.20;;;21.18
76394;BMP180;65216;51.090;-115.352;2023-04-24T08:26:25;86049.80;;;21.14
76394;BMP180;65216;51.090;-115.352;2023-04-24T08:28:53;86050.20;;;21.20
76394;BMP180;65216;51.090;-115.352;2023-04-24T08:31:23;86056.40;;;21.20
76394;BMP180;65216;51.090;-115.352;2023-04-24T08:33:51;86053.60;;;21.20
76394;BMP180;65216;51.090;-115.352;2023-04-24T08:36:19;86057.40;;;21.20
76394;BMP180;65216;51.090;-115.352;2023-04-24T08:38:49;86056.60;;;21.20
76394;BMP180;65216;51.090;-115.352;2023-04-24T08:41:19;86059.00;;;21.20
76394;BMP180;65216;51.090;-115.352;2023-04-24T08:43:48;86061.20;;;21.20
76394;BMP180;65216;51.090;-115.352;2023-04-24T08:46:20;86061.80;;;21.20
76394;BMP180;65216;51.090;-115.352;2023-04-24T08:48:48;86061.80;;;21.20
76394;BMP180;65216;51.090;-115.352;2023-04-24T08:51:17;86071.80;;;21.20
76394;BMP180;65216;51.090;-115.352;2023-04-24T08:53:46;86070.40;;;21.20
76394;BMP180;65216;51.090;-115.352;2023-04-24T08:56:14;86069.20;;;21.20
76394;BMP180;65216;51.090;-115.352;2023-04-24T08:58:42;86071.00;;;21.20
76394;BMP180;65216;51.090;-115.352;2023-04-24T09:01:13;86074.40;;;21.20
76394;BMP180;65216;51.090;-115.352;2023-04-24T09:03:40;86069.60;;;21.20
76394;BMP180;65216;51.090;-115.352;2023-04-24T09:06:09;86069.20;;;21.20
76394;BMP180;65216;51.090;-115.352;2023-04-24T09:08:39;86066.60;;;21.20
76394;BMP180;65216;51.090;-115.352;2023-04-24T09:11:09;86062.00;;;21.20
76394;BMP180;65216;51.090;-115.352;2023-04-24T09:13:37;86062.80;;;21.20
76394;BMP180;65216;51.090;-115.352;2023-04-24T09:16:05;86056.80;;;21.20
76394;BMP180;65216;51.090;-115.352;2023-04-24T09:18:32;86063.00;;;21.20
76394;BMP180;65216;51.090;-115.352;2023-04-24T09:21:09;86064.00;;;21.20
76394;BMP180;65216;51.090;-115.352;2023-04-24T09:23:36;86065.60;;;21.20
76394;BMP180;65216;51.090;-115.352;2023-04-24T09:26:04;86065.20;;;21.20
76394;BMP180;65216;51.090;-115.352;2023-04-24T09:28:37;86064.80;;;21.20
76394;BMP180;65216;51.090;-115.352;2023-04-24T09:31:14;86070.60;;;21.20
76394;BMP180;65216;51.090;-115.352;2023-04-24T09:33:58;86070.60;;;21.20
76394;BMP180;65216;51.090;-115.352;2023-04-24T09:36:38;86065.40;;;21.20
76394;BMP180;65216;51.090;-115.352;2023-04-24T09:39:11;86066.20;;;21.20
76394;BMP180;65216;51.090;-115.352;2023-04-24T09:41:46;86066.80;;;21.20
76394;BMP180;65216;51.090;-115.352;2023-04-24T09:44:21;86065.20;;;21.20
76394;BMP180;65216;51.090;-115.352;2023-04-24T09:46:59;86069.00;;;21.20
76394;BMP180;65216;51.090;-115.352;2023-04-24T09:49:31;86062.20;;;21.20
76394;BMP180;65216;51.090;-115.352;2023-04-24T09:52:09;86063.40;;;21.20
76394;BMP180;65216;51.090;-115.352;2023-04-24T09:54:38;86064.20;;;21.20
76394;BMP180;65216;51.090;-115.352;2023-04-24T09:57:07;86067.00;;;21.20
76394;BMP180;65216;51.090;-115.352;2023-04-24T09:59:45;86064.60;;;21.20
76394;BMP180;65216;51.090;-115.352;2023-04-24T10:02:21;86064.80;;;21.20
76394;BMP180;65216;51.090;-115.352;2023-04-24T10:04:56;86064.80;;;21.20
76394;BMP180;65216;51.090;-115.352;2023-04-24T10:07:28;86064.20;;;21.20
76394;BMP180;65216;51.090;-115.352;2023-04-24T10:09:56;86068.60;;;21.20
76394;BMP180;65216;51.090;-115.352;2023-04-24T10:12:30;86068.60;;;21.20
76394;BMP180;65216;51.090;-115.352;2023-04-24T10:15:03;86067.20;;;21.20
76394;BMP180;65216;51.090;-115.352;2023-04-24T10:17:34;86070.00;;;21.18
76394;BMP180;65216;51.090;-115.352;2023-04-24T10:20:02;86069.20;;;21.20
76394;BMP180;65216;51.090;-115.352;2023-04-24T10:22:30;86073.00;;;21.20
76394;BMP180;65216;51.090;-115.352;2023-04-24T10:24:59;86078.80;;;21.14
76394;BMP180;65216;51.090;-115.352;2023-04-24T10:27:27;86081.00;;;21.12
76394;BMP180;65216;51.090;-115.352;2023-04-24T10:30:00;86082.80;;;21.14
76394;BMP180;65216;51.090;-115.352;2023-04-24T10:32:28;86080.60;;;21.12
76394;BMP180;65216;51.090;-115.352;2023-04-24T10:34:55;86078.60;;;21.10
76394;BMP180;65216;51.090;-115.352;2023-04-24T10:37:24;86085.60;;;21.10
76394;BMP180;65216;51.090;-115.352;2023-04-24T10:39:56;86086.80;;;21.10
76394;BMP180;65216;51.090;-115.352;2023-04-24T10:42:23;86088.20;;;21.10
76394;BMP180;65216;51.090;-115.352;2023-04-24T10:44:53;86085.20;;;21.10
76394;BMP180;65216;51.090;-115.352;2023-04-24T10:47:22;86087.20;;;21.04
76394;BMP180;65216;51.090;-115.352;2023-04-24T10:49:51;86084.40;;;21.00
76394;BMP180;65216;51.090;-115.352;2023-04-24T10:52:19;86087.40;;;21.00
76394;BMP180;65216;51.090;-115.352;2023-04-24T10:54:47;86088.60;;;21.00
76394;BMP180;65216;51.090;-115.352;2023-04-24T10:59:49;86092.00;;;21.00
76394;BMP180;65216;51.090;-115.352;2023-04-24T11:02:19;86088.20;;;21.00
76394;BMP180;65216;51.090;-115.352;2023-04-24T11:05:06;86097.80;;;21.00
76394;BMP180;65216;51.090;-115.352;2023-04-24T11:08:11;86095.40;;;20.94
76394;BMP180;65216;51.090;-115.352;2023-04-24T11:11:01;86095.60;;;20.92
76394;BMP180;65216;51.090;-115.352;2023-04-24T11:16:34;86102.40;;;20.90
76394;BMP180;65216;51.090;-115.352;2023-04-24T11:19:08;86098.60;;;20.90
76394;BMP180;65216;51.090;-115.352;2023-04-24T11:32:41;86103.60;;;20.90
76394;BMP180;65216;51.090;-115.352;2023-04-24T11:35:19;86102.40;;;20.90
76394;BMP180;65216;51.090;-115.352;2023-04-24T11:37:55;86100.80;;;20.88
76394;BMP180;65216;51.090;-115.352;2023-04-24T11:40:23;86099.40;;;20.88
76394;BMP180;65216;51.090;-115.352;2023-04-24T11:42:53;86096.20;;;20.90
76394;BMP180;65216;51.090;-115.352;2023-04-24T11:45:26;86099.40;;;20.86
76394;BMP180;65216;51.090;-115.352;2023-04-24T11:47:53;86097.80;;;20.86
76394;BMP180;65216;51.090;-115.352;2023-04-24T11:50:23;86102.40;;;20.84
76394;BMP180;65216;51.090;-115.352;2023-04-24T11:52:52;86105.20;;;20.84
76394;BMP180;65216;51.090;-115.352;2023-04-24T11:57:54;86113.60;;;20.80
76394;BMP180;65216;51.090;-115.352;2023-04-24T12:00:24;86118.80;;;20.80
76394;BMP180;65216;51.090;-115.352;2023-04-24T12:03:06;86112.00;;;20.80
76394;BMP180;65216;51.090;-115.352;2023-04-24T12:05:34;86116.00;;;20.84
76394;BMP180;65216;51.090;-115.352;2023-04-24T12:08:01;86121.40;;;20.80
76394;BMP180;65216;51.090;-115.352;2023-04-24T12:10:31;86119.00;;;20.80
76394;BMP180;65216;51.090;-115.352;2023-04-24T12:12:59;86115.00;;;20.80
76394;BMP180;65216;51.090;-115.352;2023-04-24T12:15:30;86115.80;;;20.82
76394;BMP180;65216;51.090;-115.352;2023-04-24T12:17:57;86118.80;;;20.80
76394;BMP180;65216;51.090;-115.352;2023-04-24T12:20:30;86117.00;;;20.80
76394;BMP180;65216;51.090;-115.352;2023-04-24T12:23:00;86118.00;;;20.80
76394;BMP180;65216;51.090;-115.352;2023-04-24T12:25:32;86121.00;;;20.80
76394;BMP180;65216;51.090;-115.352;2023-04-24T12:30:43;86122.00;;;20.80
76394;BMP180;65216;51.090;-115.352;2023-04-24T12:33:11;86125.20;;;20.80
76394;BMP180;65216;51.090;-115.352;2023-04-24T12:35:41;86127.80;;;20.80
76394;BMP180;65216;51.090;-115.352;2023-04-24T12:38:12;86130.60;;;20.80
76394;BMP180;65216;51.090;-115.352;2023-04-24T12:40:42;86132.80;;;20.80
76394;BMP180;65216;51.090;-115.352;2023-04-24T12:43:17;86137.40;;;20.80
76394;BMP180;65216;51.090;-115.352;2023-04-24T12:45:45;86137.20;;;20.80
76394;BMP180;65216;51.090;-115.352;2023-04-24T12:48:15;86135.40;;;20.80
76394;BMP180;65216;51.090;-115.352;2023-04-24T12:50:43;86146.20;;;20.80
76394;BMP180;65216;51.090;-115.352;2023-04-24T12:53:11;86147.20;;;20.80
76394;BMP180;65216;51.090;-115.352;2023-04-24T12:55:41;86146.40;;;20.80
76394;BMP180;65216;51.090;-115.352;2023-04-24T12:58:09;86156.60;;;20.80
76394;BMP180;65216;51.090;-115.352;2023-04-24T13:00:39;86151.60;;;20.80
76394;BMP180;65216;51.090;-115.352;2023-04-24T13:03:06;86159.00;;;20.80
76394;BMP180;65216;51.090;-115.352;2023-04-24T13:05:33;86163.00;;;20.80
76394;BMP180;65216;51.090;-115.352;2023-04-24T13:08:01;86165.40;;;20.80
76394;BMP180;65216;51.090;-115.352;2023-04-24T13:10:29;86172.20;;;20.80
76394;BMP180;65216;51.090;-115.352;2023-04-24T13:12:57;86179.20;;;20.84
76394;BMP180;65216;51.090;-115.352;2023-04-24T13:15:24;86176.20;;;20.88
76394;BMP180;65216;51.090;-115.352;2023-04-24T13:17:51;86183.20;;;20.90
76394;BMP180;65216;51.090;-115.352;2023-04-24T13:20:19;86183.80;;;20.90
76394;BMP180;65216;51.090;-115.352;2023-04-24T13:22:46;86179.20;;;20.90
76394;BMP180;65216;51.090;-115.352;2023-04-24T13:25:13;86188.40;;;20.90
76394;BMP180;65216;51.090;-115.352;2023-04-24T13:27:44;86187.60;;;20.90
76394;BMP180;65216;51.090;-115.352;2023-04-24T13:30:12;86190.40;;;20.90
76394;BMP180;65216;51.090;-115.352;2023-04-24T13:32:39;86188.60;;;20.90
76394;BMP180;65216;51.090;-115.352;2023-04-24T13:35:07;86189.80;;;20.90
76394;BMP180;65216;51.090;-115.352;2023-04-24T13:37:34;86191.00;;;20.90
76394;BMP180;65216;51.090;-115.352;2023-04-24T13:40:05;86190.40;;;20.90
76394;BMP180;65216;51.090;-115.352;2023-04-24T13:42:33;86196.60;;;20.90
76394;BMP180;65216;51.090;-115.352;2023-04-24T13:45:01;86197.80;;;20.90
76394;BMP180;65216;51.090;-115.352;2023-04-24T13:47:28;86192.00;;;20.90
76394;BMP180;65216;51.090;-115.352;2023-04-24T13:49:58;86203.60;;;20.92
76394;BMP180;65216;51.090;-115.352;2023-04-24T13:52:26;86204.00;;;20.94
76394;BMP180;65216;51.090;-115.352;2023-04-24T13:54:56;86195.60;;;20.98
76394;BMP180;65216;51.090;-115.352;2023-04-24T13:57:26;86200.20;;;20.98
76394;BMP180;65216;51.090;-115.352;2023-04-24T13:59:54;86198.40;;;21.00
76394;BMP180;65216;51.090;-115.352;2023-04-24T14:02:24;86204.20;;;21.00
76394;BMP180;65216;51.090;-115.352;2023-04-24T14:04:55;86195.40;;;21.00